Arminto, WY (82630)

3:38 AM MDT on August 23, 2014 (GMT -0600)
Natrona County International | Change Station
CLOSE
Current Station
Airport
Location: Casper,
Elevation: 5289 ft
Nearby Weather Stations

Elev 5289 ft 42.90 °N, 106.47 °W | Updated 45 minutes ago

Overcast
Overcast
57 °F
Feels Like 57 °F
N
5
Wind Variable Wind from WNW

Today
High -- | Low -- °F
--% Chance of Precip.
Yesterday
High -- | Low -- °F
Precip. -- in
6:23 AM 7:59 PM
Waning Crescent, 4% visible
Pressure 29.97 in
Visibility 10.0 miles
Clouds Few 1400 ft
Scattered Clouds 10000 ft
Overcast 12000 ft
Dew Point 55 °F
Humidity 94%
Rainfall 0.00 in
Snow Depth Not available.
UV 0 out of 12
Pollen 7.20 out of 12
Air Quality Not available.
Flu Activity Not available.
METAR KCPR 230853Z AUTO 30004KT 10SM FEW014 SCT100 OVC120 14/13 A2997

More Conditions Fewer Conditions

Pressure 29.97 in
Visibility 10.0 miles
Clouds Few 1400 ft
Scattered Clouds 10000 ft
Overcast 12000 ft
Dew Point 55 °F
Humidity 94%
Rainfall 0.00 in
Snow Depth Not available.
UV 0 out of 12
Pollen 7.20 out of 12
Air Quality Not available.
Flu Activity Not available.
METAR KCPR 230853Z AUTO 30004KT 10SM FEW014 SCT100 OVC120 14/13 A2997

More Conditions Fewer Conditions

10-Day Weather Forecast

Almanac

Astronomy

Aug. 23, 2014 Rise Set
Actual Time 6:23 AM MDT 7:59 PM MDT
Civil Twilight 5:53 AM MDT 8:29 PM MDT
Nautical Twilight 5:17 AM MDT 9:05 PM MDT
Astronomical Twilight 4:38 AM MDT 9:44 PM MDT
Moon 4:41 AM MDT 6:46 PM MDT
Length of Visible Light 14h 35m
Length of Day
13h 35m
Tomorrow will be 2m 44s shorter.
Waning Crescent, 4% of the Moon is Illuminated
Today
Waning Crescent
Aug 25
New
Sep 2
First Quarter
Sep 8
Full
Sep 15
Last Quarter

Today's Extremes

State Highs State Lows

Community

WunderPhotos

Upload Photos

1,746,396 photos uploaded!

WunderBlogs® & News

By Dr. Jeff Masters
Director of Meteorology, Weather Underground
By Kari Strenfel
Meteorologist, Weather Underground
By Christopher C. Burt
Weather Historian, Weather Underground
August 23, 2014
August 23, 2014
August 22, 2014

Nearby

Snow Depth

Station Depth Elevation
Grave Springs 1 in 8550 ft
Middle Powder 0 in 7760 ft
Bear Trap Meadow 0 in 8200 ft
Casper Mountain 1 in 7850 ft
Powder River Pass 0 in 9480 ft

Earthquake Activity

City Distance Mag. Time & Date
No recent earthquake activity has been reported nearby.
Minimum magnitude displayed is 2.5.

Coastal Water Temperatures

Place Temperature
No Stations Reporting

Nearby Weather Stations